createdAt,value
2023-05-01T00:00:55.730Z,7.32
2023-05-01T00:01:52.707Z,6.95
2023-05-01T00:02:49.580Z,6.97
2023-05-01T00:03:46.852Z,7.15
2023-05-01T00:04:44.116Z,7.28
2023-05-01T00:05:41.111Z,7.70
2023-05-01T00:06:38.038Z,6.97
2023-05-01T00:07:35.560Z,7.40
2023-05-01T00:08:32.698Z,7.37
2023-05-01T00:09:29.590Z,8.25
2023-05-01T00:10:26.459Z,7.55
2023-05-01T00:11:24.938Z,7.47
2023-05-01T00:12:21.791Z,7.90
2023-05-01T00:13:21.970Z,7.50
2023-05-01T00:14:18.808Z,7.30
2023-05-01T00:15:15.777Z,7.60
2023-05-01T00:16:13.256Z,7.35
2023-05-01T00:17:10.260Z,7.47
2023-05-01T00:18:07.173Z,7.37
2023-05-01T00:19:05.171Z,7.75
2023-05-01T00:20:02.123Z,7.53
2023-05-01T00:20:59.080Z,7.80
2023-05-01T00:21:56.071Z,7.65
2023-05-01T00:22:53.001Z,7.28
2023-05-01T00:23:50.126Z,7.10
2023-05-01T00:24:48.211Z,8.05
2023-05-01T00:25:45.008Z,7.70
2023-05-01T00:26:41.792Z,8.05
2023-05-01T00:27:38.644Z,8.10
2023-05-01T00:28:35.667Z,7.25
2023-05-01T00:29:32.634Z,8.00
2023-05-01T00:30:29.509Z,7.60
2023-05-01T00:31:26.416Z,7.15
2023-05-01T00:32:23.369Z,8.10
2023-05-01T00:33:20.392Z,7.55
2023-05-01T00:34:17.386Z,8.13
2023-05-01T00:35:14.364Z,7.40
2023-05-01T00:36:11.541Z,8.18
2023-05-01T00:37:08.433Z,8.10
2023-05-01T00:38:05.924Z,8.00
2023-05-01T00:39:02.924Z,7.80
2023-05-01T00:40:00.011Z,7.50
2023-05-01T00:40:56.882Z,7.65
2023-05-01T00:41:55.092Z,7.55
2023-05-01T00:42:52.017Z,6.93
2023-05-01T00:43:48.901Z,7.12
2023-05-01T00:44:46.413Z,7.28
2023-05-01T00:45:44.809Z,8.02
2023-05-01T00:46:42.714Z,7.82
2023-05-01T00:47:39.518Z,7.62
2023-05-01T00:48:36.470Z,7.75
2023-05-01T00:49:34.257Z,7.60
2023-05-01T00:50:31.211Z,8.32
2023-05-01T00:51:29.638Z,8.07
2023-05-01T00:52:26.668Z,7.85
2023-05-01T00:53:26.468Z,7.47
2023-05-01T00:54:25.339Z,7.90
2023-05-01T00:55:22.424Z,8.02
2023-05-01T00:56:19.537Z,7.90
2023-05-01T00:57:16.404Z,8.32
2023-05-01T00:58:14.248Z,7.97
2023-05-01T00:59:11.143Z,7.93
2023-05-01T01:00:08.864Z,8.02
2023-05-01T01:01:05.708Z,8.32
2023-05-01T01:02:02.616Z,7.78
2023-05-01T01:02:59.800Z,7.78
2023-05-01T01:03:56.880Z,7.68
2023-05-01T01:04:54.054Z,7.85
2023-05-01T01:05:58.067Z,7.62
2023-05-01T01:07:02.557Z,7.85
2023-05-01T01:08:18.756Z,7.65
2023-05-01T01:09:56.783Z,7.78
2023-05-01T01:11:00.755Z,8.07
2023-05-01T01:12:20.399Z,8.07
2023-05-01T01:13:25.919Z,8.02
2023-05-01T01:14:31.334Z,7.75
2023-05-01T01:15:36.590Z,9.20
2023-05-01T01:16:57.576Z,8.18
2023-05-01T01:17:54.428Z,8.65
2023-05-01T01:19:04.761Z,8.05
2023-05-01T01:20:33.594Z,8.40
2023-05-01T01:21:39.018Z,7.53
2023-05-01T01:22:37.088Z,8.20
2023-05-01T01:24:10.805Z,8.10
2023-05-01T01:25:19.870Z,8.13
2023-05-01T01:26:19.755Z,8.73
2023-05-01T01:27:24.610Z,7.93
2023-05-01T01:28:41.471Z,8.77
2023-05-01T01:29:51.881Z,9.20
2023-05-01T01:31:00.155Z,7.80
2023-05-01T01:32:34.583Z,8.65
2023-05-01T01:34:10.257Z,8.80
2023-05-01T01:35:09.223Z,7.95
2023-05-01T01:36:09.758Z,8.57
2023-05-01T01:37:15.421Z,9.00
2023-05-01T01:38:18.090Z,8.95
2023-05-01T01:39:30.135Z,8.30
2023-05-01T01:40:32.562Z,9.63
2023-05-01T01:41:34.939Z,8.93
2023-05-01T01:42:41.359Z,8.68
2023-05-01T01:43:45.830Z,8.50
2023-05-01T01:44:58.631Z,8.35
2023-05-01T01:46:00.971Z,8.65
2023-05-01T01:46:58.794Z,8.93
2023-05-01T01:47:56.577Z,9.18
2023-05-01T01:48:55.677Z,9.38
2023-05-01T01:49:53.185Z,9.00
2023-05-01T01:50:50.359Z,9.52
2023-05-01T01:51:47.918Z,8.77
2023-05-01T01:52:47.908Z,9.68
2023-05-01T01:53:46.812Z,8.52
2023-05-01T01:54:52.648Z,9.52
2023-05-01T01:55:50.648Z,9.15
2023-05-01T01:56:48.543Z,9.38
2023-05-01T01:57:46.020Z,9.05
2023-05-01T01:58:43.808Z,9.88
2023-05-01T01:59:41.985Z,9.48
2023-05-01T02:00:42.303Z,9.23
2023-05-01T02:01:40.095Z,10.63
2023-05-01T02:02:40.347Z,9.90
2023-05-01T02:03:39.214Z,7.37
2023-05-01T02:04:36.760Z,10.00
2023-05-01T02:05:34.784Z,10.07
2023-05-01T02:06:33.038Z,9.73
2023-05-01T02:07:30.872Z,9.40
2023-05-01T02:08:29.919Z,9.40
2023-05-01T02:09:28.808Z,9.68
2023-05-01T02:10:25.943Z,9.82
2023-05-01T02:11:23.241Z,9.02
2023-05-01T02:12:20.392Z,10.82
2023-05-01T02:13:17.716Z,9.38
2023-05-01T02:14:15.320Z,10.13
2023-05-01T02:15:12.692Z,9.70
2023-05-01T02:16:10.180Z,10.40
2023-05-01T02:17:07.899Z,10.00
2023-05-01T02:18:06.264Z,9.90
2023-05-01T02:19:04.795Z,9.23
2023-05-01T02:20:02.392Z,9.82
2023-05-01T02:21:00.361Z,9.95
2023-05-01T02:21:58.178Z,9.73
2023-05-01T02:22:55.267Z,9.48
2023-05-01T02:23:52.980Z,9.93
2023-05-01T02:24:49.931Z,9.90
2023-05-01T02:25:49.342Z,10.05
2023-05-01T02:26:50.630Z,8.98
2023-05-01T02:28:00.562Z,9.57
2023-05-01T02:28:57.930Z,9.38
2023-05-01T02:29:55.196Z,9.95
2023-05-01T02:30:52.840Z,9.50
2023-05-01T02:31:49.696Z,9.88
2023-05-01T02:32:46.790Z,9.32
2023-05-01T02:33:43.671Z,9.13
2023-05-01T02:34:40.585Z,9.05
2023-05-01T02:35:52.761Z,8.68
2023-05-01T02:36:49.577Z,9.63
2023-05-01T02:37:46.563Z,9.15
2023-05-01T02:38:43.924Z,10.13
2023-05-01T02:39:41.097Z,9.45
2023-05-01T02:40:39.762Z,9.68
2023-05-01T02:41:37.447Z,9.93
2023-05-01T02:42:35.607Z,9.00
2023-05-01T02:43:33.929Z,9.90
2023-05-01T02:44:40.973Z,9.60
2023-05-01T02:45:41.750Z,9.63
2023-05-01T02:46:39.344Z,9.15
2023-05-01T02:47:38.769Z,9.63
2023-05-01T02:48:35.817Z,9.95
2023-05-01T02:49:34.134Z,9.30
2023-05-01T02:50:31.483Z,9.43
2023-05-01T02:51:28.578Z,9.02
2023-05-01T02:52:25.461Z,9.48
2023-05-01T02:53:23.028Z,9.75
2023-05-01T02:54:20.147Z,9.82
2023-05-01T02:55:17.579Z,9.38
2023-05-01T02:56:14.901Z,10.32
2023-05-01T02:57:12.513Z,10.10
2023-05-01T02:58:09.365Z,9.50
2023-05-01T02:59:06.165Z,9.40
2023-05-01T03:00:03.600Z,9.68
2023-05-01T03:01:00.769Z,10.00
2023-05-01T03:01:57.793Z,10.13
2023-05-01T03:02:54.935Z,9.10
2023-05-01T03:03:52.447Z,9.52
2023-05-01T03:04:50.143Z,9.70
2023-05-01T03:05:48.026Z,9.05
2023-05-01T03:06:45.292Z,9.43
2023-05-01T03:07:42.252Z,10.23
2023-05-01T03:08:39.140Z,9.73
2023-05-01T03:09:36.185Z,10.63
2023-05-01T03:10:33.300Z,9.57
2023-05-01T03:11:30.094Z,9.70
2023-05-01T03:12:26.966Z,9.98
2023-05-01T03:13:23.790Z,9.63
2023-05-01T03:14:20.855Z,9.60
2023-05-01T03:15:18.750Z,9.98
2023-05-01T03:16:15.636Z,9.85
2023-05-01T03:17:13.434Z,9.85
2023-05-01T03:18:10.345Z,10.18
2023-05-01T03:19:07.453Z,9.77
2023-05-01T03:20:06.463Z,9.75
2023-05-01T03:21:03.283Z,9.93
2023-05-01T03:22:00.846Z,10.02
2023-05-01T03:22:57.732Z,10.20
2023-05-01T03:23:54.754Z,10.27
2023-05-01T03:24:51.632Z,9.88
2023-05-01T03:25:48.564Z,9.68
2023-05-01T03:26:45.469Z,10.05
2023-05-01T03:27:42.703Z,10.45
2023-05-01T03:28:39.529Z,9.38
2023-05-01T03:29:38.250Z,10.00
2023-05-01T03:30:35.438Z,10.55
2023-05-01T03:31:32.431Z,9.82
2023-05-01T03:32:29.712Z,9.55
2023-05-01T03:33:26.919Z,9.95
2023-05-01T03:34:23.881Z,9.82
2023-05-01T03:35:20.759Z,10.05
2023-05-01T03:36:17.699Z,10.00
2023-05-01T03:37:15.342Z,10.27
2023-05-01T03:38:12.179Z,9.48
2023-05-01T03:39:09.102Z,9.45
2023-05-01T03:40:06.681Z,9.95
2023-05-01T03:41:05.376Z,9.73
2023-05-01T03:42:02.629Z,9.85
2023-05-01T03:42:59.443Z,9.45
2023-05-01T03:43:56.268Z,9.73
2023-05-01T03:44:53.136Z,9.35
2023-05-01T03:45:51.309Z,9.20
2023-05-01T03:46:48.385Z,9.23
2023-05-01T03:47:45.244Z,10.23
2023-05-01T03:48:42.244Z,9.73
2023-05-01T03:49:39.101Z,9.98
2023-05-01T03:50:35.899Z,9.63
2023-05-01T03:51:32.817Z,8.98
2023-05-01T03:52:29.605Z,10.05
2023-05-01T03:53:26.922Z,9.93
2023-05-01T03:54:23.851Z,9.73
2023-05-01T03:55:20.728Z,9.57
2023-05-01T03:56:18.122Z,9.80
2023-05-01T03:57:15.074Z,9.75
2023-05-01T03:58:11.892Z,9.65
2023-05-01T03:59:09.565Z,9.27
2023-05-01T04:00:07.471Z,9.05
2023-05-01T04:01:04.393Z,9.38
2023-05-01T04:02:01.573Z,10.00
2023-05-01T04:02:58.718Z,9.23
2023-05-01T04:03:55.835Z,9.52
2023-05-01T04:04:52.792Z,9.63
2023-05-01T04:05:49.903Z,9.90
2023-05-01T04:06:48.871Z,9.90
2023-05-01T04:07:45.723Z,8.98
2023-05-01T04:08:42.592Z,9.55
2023-05-01T04:09:39.413Z,8.52
2023-05-01T04:10:36.337Z,10.07
2023-05-01T04:11:33.126Z,9.35
2023-05-01T04:12:30.071Z,8.02
2023-05-01T04:13:26.951Z,9.48
2023-05-01T04:14:24.124Z,9.10
2023-05-01T04:15:22.844Z,9.93
2023-05-01T04:16:19.767Z,8.85
2023-05-01T04:17:16.897Z,8.77
2023-05-01T04:18:13.866Z,9.55
2023-05-01T04:19:10.733Z,9.60
2023-05-01T04:20:07.992Z,9.07
2023-05-01T04:21:05.338Z,9.20
2023-05-01T04:22:02.550Z,9.00
2023-05-01T04:22:59.471Z,8.90
2023-05-01T04:23:56.426Z,8.55
2023-05-01T04:24:53.396Z,9.32
2023-05-01T04:25:50.349Z,9.40
2023-05-01T04:26:47.227Z,9.38
2023-05-01T04:27:44.033Z,9.35
2023-05-01T04:28:40.893Z,9.38
2023-05-01T04:29:37.951Z,8.80
2023-05-01T04:30:34.795Z,9.35
2023-05-01T04:31:31.648Z,8.65
2023-05-01T04:32:28.538Z,8.55
2023-05-01T04:33:25.831Z,10.02
2023-05-01T04:34:22.681Z,9.30
2023-05-01T04:35:19.730Z,9.85
2023-05-01T04:36:17.282Z,9.52
2023-05-01T04:37:14.580Z,9.43
2023-05-01T04:38:11.837Z,8.88
2023-05-01T04:39:08.710Z,9.02
2023-05-01T04:40:06.201Z,8.77
2023-05-01T04:41:03.454Z,9.35
2023-05-01T04:42:00.414Z,9.85
2023-05-01T04:42:57.325Z,9.02
2023-05-01T04:43:54.162Z,8.48
2023-05-01T04:44:50.981Z,9.52
2023-05-01T04:45:48.029Z,8.98
2023-05-01T04:46:45.250Z,9.63
2023-05-01T04:47:42.316Z,9.32
2023-05-01T04:48:39.202Z,9.50
2023-05-01T04:49:36.204Z,8.98
2023-05-01T04:50:33.218Z,8.63
2023-05-01T04:51:30.039Z,9.43
2023-05-01T04:52:26.925Z,9.43
2023-05-01T04:53:23.721Z,8.90
2023-05-01T04:54:20.558Z,8.93
2023-05-01T04:55:17.619Z,8.65
2023-05-01T04:56:14.575Z,9.30
2023-05-01T04:57:11.388Z,8.27
2023-05-01T04:58:08.216Z,8.55
2023-05-01T04:59:05.048Z,8.68
2023-05-01T05:00:03.490Z,8.50
2023-05-01T05:01:00.417Z,8.80
2023-05-01T05:01:57.386Z,8.80
2023-05-01T05:02:54.350Z,8.23
2023-05-01T05:03:51.486Z,7.93
2023-05-01T05:04:48.798Z,8.45
2023-05-01T05:05:46.690Z,9.13
2023-05-01T05:06:43.721Z,8.98
2023-05-01T05:07:41.265Z,8.27
2023-05-01T05:08:38.068Z,8.55
2023-05-01T05:09:34.890Z,8.50
2023-05-01T05:10:32.202Z,8.38
2023-05-01T05:11:29.048Z,9.05
2023-05-01T05:12:26.254Z,8.60
2023-05-01T05:13:23.089Z,8.68
2023-05-01T05:14:20.450Z,8.50
2023-05-01T05:15:17.390Z,8.73
2023-05-01T05:16:14.656Z,7.93
2023-05-01T05:17:11.521Z,8.13
2023-05-01T05:18:08.481Z,8.77
2023-05-01T05:19:05.585Z,7.80
2023-05-01T05:20:02.659Z,8.50
2023-05-01T05:21:03.788Z,7.72
2023-05-01T05:22:03.128Z,8.02
2023-05-01T05:22:59.969Z,7.97
2023-05-01T05:23:56.783Z,7.85
2023-05-01T05:24:57.728Z,7.70
2023-05-01T05:25:54.525Z,7.32
2023-05-01T05:26:51.379Z,8.15
2023-05-01T05:27:48.427Z,7.35
2023-05-01T05:28:45.808Z,7.28
2023-05-01T05:29:42.673Z,8.32
2023-05-01T05:30:39.449Z,7.68
2023-05-01T05:31:36.367Z,7.93
2023-05-01T05:32:33.847Z,7.72
2023-05-01T05:33:30.867Z,7.70
2023-05-01T05:34:27.707Z,7.60
2023-05-01T05:35:24.740Z,7.57
2023-05-01T05:36:21.723Z,8.13
2023-05-01T05:37:18.634Z,7.50
2023-05-01T05:38:15.845Z,7.57
2023-05-01T05:39:13.967Z,7.62
2023-05-01T05:40:11.340Z,7.30
2023-05-01T05:41:08.265Z,7.70
2023-05-01T05:42:05.088Z,7.50
2023-05-01T05:43:01.978Z,7.93
2023-05-01T05:43:58.835Z,8.38
2023-05-01T05:44:55.771Z,7.07
2023-05-01T05:45:57.215Z,7.20
2023-05-01T05:46:54.089Z,7.37
2023-05-01T05:47:51.103Z,7.37
2023-05-01T05:48:47.979Z,7.03
2023-05-01T05:49:44.880Z,7.40
2023-05-01T05:50:41.942Z,6.85
2023-05-01T05:51:38.845Z,7.25
2023-05-01T05:52:35.737Z,7.30
2023-05-01T05:53:32.622Z,7.18
2023-05-01T05:54:29.483Z,7.68
2023-05-01T05:55:26.578Z,7.05
2023-05-01T05:56:24.624Z,7.32
2023-05-01T05:57:21.508Z,7.75
2023-05-01T05:58:20.341Z,7.10
2023-05-01T05:59:17.681Z,7.35
2023-05-01T06:00:15.454Z,7.55
2023-05-01T06:01:12.261Z,7.57
2023-05-01T06:02:09.099Z,7.95
2023-05-01T06:03:07.370Z,8.02
2023-05-01T06:04:04.451Z,8.43
2023-05-01T06:05:01.442Z,7.53
2023-05-01T06:05:58.490Z,8.00
2023-05-01T06:06:55.707Z,7.78
2023-05-01T06:07:52.584Z,7.40
2023-05-01T06:08:49.465Z,7.40
2023-05-01T06:09:46.618Z,6.65
2023-05-01T06:10:44.239Z,6.60
2023-05-01T06:11:41.555Z,6.43
2023-05-01T06:12:40.379Z,6.20
2023-05-01T06:13:43.116Z,6.00
2023-05-01T06:14:41.131Z,6.07
2023-05-01T06:15:38.398Z,6.40
2023-05-01T06:16:35.568Z,5.78
2023-05-01T06:17:32.638Z,5.80
2023-05-01T06:18:30.613Z,5.45
2023-05-01T06:19:28.157Z,6.03
2023-05-01T06:20:25.063Z,6.10
2023-05-01T06:21:22.136Z,5.78
2023-05-01T06:22:19.672Z,6.00
2023-05-01T06:23:16.543Z,5.65
2023-05-01T06:24:13.775Z,6.57
2023-05-01T06:25:10.828Z,5.68
2023-05-01T06:26:08.226Z,5.93
2023-05-01T06:27:05.045Z,5.87
2023-05-01T06:28:02.740Z,6.72
2023-05-01T06:28:59.528Z,6.40
2023-05-01T06:29:56.653Z,7.22
2023-05-01T06:30:53.731Z,8.20
2023-05-01T06:31:50.971Z,8.48
2023-05-01T06:32:48.054Z,7.57
2023-05-01T06:33:44.943Z,8.38
2023-05-01T06:34:41.861Z,9.43
2023-05-01T06:35:41.936Z,9.63
2023-05-01T06:36:39.039Z,9.77
2023-05-01T06:37:36.354Z,9.50
2023-05-01T06:38:33.244Z,10.50
2023-05-01T06:39:30.080Z,10.43
2023-05-01T06:40:26.865Z,9.80
2023-05-01T06:41:23.658Z,10.43
2023-05-01T06:42:21.723Z,9.50
2023-05-01T06:43:18.601Z,9.25
2023-05-01T06:44:16.212Z,8.38
2023-05-01T06:45:13.109Z,8.85
2023-05-01T06:46:10.108Z,7.85
2023-05-01T06:47:07.448Z,8.10
2023-05-01T06:48:04.903Z,9.05
2023-05-01T06:49:01.991Z,8.77
2023-05-01T06:49:58.968Z,8.88
2023-05-01T06:50:56.424Z,8.95
2023-05-01T06:51:53.471Z,8.77
2023-05-01T06:52:50.482Z,9.10
2023-05-01T06:53:47.289Z,9.07
2023-05-01T06:54:44.136Z,8.73
2023-05-01T06:55:41.006Z,7.97
2023-05-01T06:56:37.897Z,8.35
2023-05-01T06:57:34.747Z,9.00
2023-05-01T06:58:31.619Z,9.20
2023-05-01T06:59:28.500Z,8.40
2023-05-01T07:00:25.355Z,8.68
2023-05-01T07:01:22.354Z,9.07
2023-05-01T07:02:19.547Z,8.30
2023-05-01T07:03:16.598Z,8.30
2023-05-01T07:04:13.578Z,8.10
2023-05-01T07:05:10.387Z,8.43
2023-05-01T07:06:07.294Z,8.30
2023-05-01T07:07:04.252Z,8.07
2023-05-01T07:08:02.077Z,8.35
2023-05-01T07:08:59.003Z,7.80
2023-05-01T07:09:56.097Z,8.10
2023-05-01T07:10:54.077Z,8.27
2023-05-01T07:11:51.048Z,8.25
2023-05-01T07:12:47.893Z,8.35
2023-05-01T07:13:44.822Z,7.82
2023-05-01T07:14:41.992Z,7.95
2023-05-01T07:15:38.990Z,7.70
2023-05-01T07:16:35.884Z,8.25
2023-05-01T07:17:32.826Z,6.93
2023-05-01T07:18:29.939Z,6.65
2023-05-01T07:19:26.777Z,6.75
2023-05-01T07:20:23.646Z,6.37
2023-05-01T07:21:20.513Z,5.15
2023-05-01T07:22:17.411Z,5.00
2023-05-01T07:23:14.212Z,4.80
2023-05-01T07:24:12.492Z,4.60
2023-05-01T07:25:09.436Z,4.70
2023-05-01T07:26:06.366Z,4.57
2023-05-01T07:27:03.175Z,4.70
2023-05-01T07:28:02.010Z,4.55
2023-05-01T07:28:58.813Z,4.25
2023-05-01T07:29:56.553Z,4.30
2023-05-01T07:30:53.667Z,4.55
2023-05-01T07:31:50.617Z,4.85
2023-05-01T07:32:47.841Z,4.60
2023-05-01T07:33:45.159Z,4.40
2023-05-01T07:34:41.945Z,4.75
2023-05-01T07:35:38.752Z,4.20
2023-05-01T07:36:35.775Z,4.60
2023-05-01T07:37:32.983Z,4.40
2023-05-01T07:38:29.816Z,4.80
2023-05-01T07:39:27.000Z,4.78
2023-05-01T07:40:23.745Z,4.93
2023-05-01T07:41:21.990Z,4.15
2023-05-01T07:42:18.968Z,4.43
2023-05-01T07:43:15.885Z,4.30
2023-05-01T07:44:12.715Z,4.20
2023-05-01T07:45:09.935Z,4.30
2023-05-01T07:46:07.352Z,4.30
2023-05-01T07:47:05.007Z,4.30
2023-05-01T07:48:01.873Z,4.30
2023-05-01T07:48:58.711Z,4.18
2023-05-01T07:49:55.849Z,3.92
2023-05-01T07:50:53.089Z,4.15
2023-05-01T07:51:49.955Z,4.57
2023-05-01T07:52:46.837Z,4.22
2023-05-01T07:53:43.689Z,3.90
2023-05-01T07:54:40.510Z,4.40
2023-05-01T07:55:38.068Z,4.10
2023-05-01T07:56:34.882Z,4.10
2023-05-01T07:57:33.706Z,4.10
2023-05-01T07:58:30.515Z,4.00
2023-05-01T07:59:27.450Z,4.10
2023-05-01T08:00:24.386Z,4.00
2023-05-01T08:01:21.329Z,4.07
2023-05-01T08:02:18.196Z,4.20
2023-05-01T08:03:15.331Z,4.05
2023-05-01T08:04:12.349Z,3.80
2023-05-01T08:05:10.027Z,3.92
2023-05-01T08:06:07.175Z,4.37
2023-05-01T08:07:04.098Z,4.25
2023-05-01T08:08:00.979Z,4.32
2023-05-01T08:08:57.843Z,4.00
2023-05-01T08:09:56.359Z,4.00
2023-05-01T08:10:54.674Z,4.10
2023-05-01T08:11:51.625Z,5.07
2023-05-01T08:12:48.488Z,3.95
2023-05-01T08:13:45.368Z,4.00
2023-05-01T08:14:42.261Z,4.37
2023-05-01T08:15:39.487Z,3.97
2023-05-01T08:16:36.532Z,4.15
2023-05-01T08:17:34.672Z,4.35
2023-05-01T08:18:31.701Z,4.10
2023-05-01T08:19:28.776Z,4.03
2023-05-01T08:20:25.763Z,3.95
2023-05-01T08:21:22.650Z,3.97
2023-05-01T08:22:19.505Z,4.03
2023-05-01T08:23:19.548Z,4.20
2023-05-01T08:24:16.452Z,4.20
2023-05-01T08:25:13.362Z,4.40
2023-05-01T08:26:10.231Z,3.90
2023-05-01T08:27:07.065Z,4.22
2023-05-01T08:28:04.176Z,3.95
2023-05-01T08:29:01.022Z,3.97
2023-05-01T08:29:58.079Z,4.07
2023-05-01T08:30:55.092Z,3.90
2023-05-01T08:31:52.042Z,3.90
2023-05-01T08:32:49.012Z,4.07
2023-05-01T08:33:45.815Z,4.15
2023-05-01T08:34:42.698Z,3.83
2023-05-01T08:35:39.526Z,3.80
2023-05-01T08:36:36.408Z,4.20
2023-05-01T08:37:33.209Z,3.87
2023-05-01T08:38:30.066Z,4.60
2023-05-01T08:39:26.869Z,3.80
2023-05-01T08:40:24.398Z,4.28
2023-05-01T08:41:22.214Z,3.95
2023-05-01T08:42:19.064Z,4.30
2023-05-01T08:43:16.118Z,3.80
2023-05-01T08:44:15.863Z,3.87
2023-05-01T08:45:13.234Z,3.92
2023-05-01T08:46:10.326Z,4.12
2023-05-01T08:47:17.963Z,4.20
2023-05-01T08:48:17.762Z,4.05
2023-05-01T08:49:16.337Z,5.77
2023-05-01T08:50:14.357Z,5.20
2023-05-01T08:51:12.589Z,4.85
2023-05-01T08:52:11.761Z,5.53
2023-05-01T08:53:12.374Z,4.70
2023-05-01T08:55:08.930Z,4.62
2023-05-01T08:56:07.949Z,5.18
2023-05-01T08:57:06.911Z,4.50
2023-05-01T08:58:07.126Z,4.37
2023-05-01T08:59:05.475Z,4.12
2023-05-01T09:00:05.214Z,4.55
2023-05-01T09:01:03.325Z,4.10
2023-05-01T09:02:02.189Z,4.15
2023-05-01T09:03:01.298Z,4.45
2023-05-01T09:03:59.172Z,4.07
2023-05-01T09:04:56.316Z,4.12
2023-05-01T09:05:53.810Z,4.82
2023-05-01T09:06:50.864Z,4.00
2023-05-01T09:07:48.103Z,3.70
2023-05-01T09:08:44.872Z,4.12
2023-05-01T09:09:41.854Z,3.87
2023-05-01T09:10:46.409Z,4.30
2023-05-01T09:11:45.401Z,4.53
2023-05-01T09:12:45.099Z,4.00
2023-05-01T09:13:42.011Z,4.60
2023-05-01T09:14:38.940Z,4.32
2023-05-01T09:15:36.090Z,6.07
2023-05-01T09:16:33.074Z,4.47
2023-05-01T09:17:32.114Z,4.20
2023-05-01T09:18:29.058Z,3.90
2023-05-01T09:19:26.924Z,4.20
2023-05-01T09:20:24.777Z,3.97
2023-05-01T09:21:21.629Z,4.05
2023-05-01T09:22:19.135Z,4.10
2023-05-01T09:23:15.976Z,3.95
2023-05-01T09:24:13.079Z,4.20
2023-05-01T09:25:11.199Z,3.97
2023-05-01T09:26:08.321Z,4.07
2023-05-01T09:27:06.147Z,4.18
2023-05-01T09:28:05.459Z,4.60
2023-05-01T09:29:02.747Z,3.70
2023-05-01T09:29:59.659Z,3.60
2023-05-01T09:30:56.592Z,4.72
2023-05-01T09:31:53.472Z,3.92
2023-05-01T09:33:13.922Z,4.20
2023-05-01T09:34:10.778Z,4.40
2023-05-01T09:35:12.899Z,4.05
2023-05-01T09:36:17.658Z,3.90
2023-05-01T09:37:27.770Z,3.80
2023-05-01T09:38:26.585Z,4.03
2023-05-01T09:39:24.070Z,4.20
2023-05-01T09:40:27.513Z,4.03
2023-05-01T09:41:24.522Z,4.07
2023-05-01T09:42:24.532Z,3.70
2023-05-01T09:43:28.720Z,4.30
2023-05-01T09:44:27.030Z,4.40
2023-05-01T09:45:24.260Z,4.10
2023-05-01T09:46:23.149Z,4.25
2023-05-01T09:47:23.263Z,3.85
2023-05-01T09:48:20.148Z,3.85
2023-05-01T09:49:16.960Z,4.22
2023-05-01T09:50:34.635Z,4.12
2023-05-01T09:51:33.629Z,3.90
2023-05-01T09:52:31.540Z,4.12
2023-05-01T09:53:39.006Z,3.62
2023-05-01T09:54:36.862Z,3.90
2023-05-01T09:55:34.396Z,4.22
2023-05-01T09:56:34.256Z,3.95
2023-05-01T09:57:38.435Z,4.03
2023-05-01T09:58:35.292Z,4.15
2023-05-01T09:59:34.536Z,4.05
2023-05-01T10:00:31.733Z,4.00
2023-05-01T10:01:41.514Z,4.30
2023-05-01T10:02:39.759Z,3.90
2023-05-01T10:03:37.615Z,4.12
2023-05-01T10:04:35.280Z,3.92
2023-05-01T10:05:43.878Z,4.50
2023-05-01T10:06:41.700Z,4.10
2023-05-01T10:07:38.993Z,4.10
2023-05-01T10:08:46.965Z,3.70
2023-05-01T10:09:43.833Z,3.78
2023-05-01T10:10:43.942Z,4.30
2023-05-01T10:11:52.530Z,4.07
2023-05-01T10:12:49.602Z,3.78
2023-05-01T10:13:46.505Z,3.83
2023-05-01T10:14:54.217Z,3.90
2023-05-01T10:15:51.348Z,4.07
2023-05-01T10:16:49.787Z,3.87
2023-05-01T10:17:50.133Z,3.78
2023-05-01T10:18:47.080Z,3.92
2023-05-01T10:19:44.000Z,4.10
2023-05-01T10:20:41.080Z,4.00
2023-05-01T10:21:38.016Z,4.20
2023-05-01T10:22:35.261Z,4.00
2023-05-01T10:23:32.385Z,3.70
2023-05-01T10:24:29.365Z,3.92
2023-05-01T10:25:27.876Z,3.85
2023-05-01T10:26:25.622Z,4.00
2023-05-01T10:27:23.502Z,3.90
2023-05-01T10:28:21.549Z,4.30
2023-05-01T10:29:21.423Z,4.22
2023-05-01T10:30:18.528Z,4.12
2023-05-01T10:31:16.666Z,4.40
2023-05-01T10:32:13.635Z,3.87
2023-05-01T10:33:15.976Z,4.22
2023-05-01T10:34:17.151Z,3.70
2023-05-01T10:35:20.530Z,4.37
2023-05-01T10:36:41.949Z,4.07
2023-05-01T10:38:06.578Z,4.95
2023-05-01T10:39:03.935Z,4.05
2023-05-01T10:40:00.925Z,3.65
2023-05-01T10:40:58.052Z,4.70
2023-05-01T10:42:03.895Z,3.92
2023-05-01T10:43:31.038Z,4.25
2023-05-01T10:44:28.029Z,4.20
2023-05-01T10:45:31.172Z,3.83
2023-05-01T10:46:28.211Z,3.85
2023-05-01T10:47:25.546Z,4.47
2023-05-01T10:48:37.848Z,3.97
2023-05-01T10:50:04.750Z,3.87
2023-05-01T10:51:15.904Z,4.30
2023-05-01T10:52:13.360Z,3.85
2023-05-01T10:53:10.119Z,3.92
2023-05-01T10:54:13.211Z,4.15
2023-05-01T10:55:35.440Z,3.55
2023-05-01T10:56:32.245Z,3.67
2023-05-01T10:57:42.729Z,3.97
2023-05-01T10:58:39.452Z,3.83
2023-05-01T11:00:05.189Z,3.60
2023-05-01T11:01:45.514Z,4.00
2023-05-01T11:02:42.958Z,4.15
2023-05-01T11:03:40.508Z,3.95
2023-05-01T11:04:49.431Z,4.32
2023-05-01T11:06:03.303Z,3.90
2023-05-01T11:07:06.285Z,3.58
2023-05-01T11:08:41.411Z,3.65
2023-05-01T11:09:44.772Z,4.10
2023-05-01T11:10:41.592Z,4.10
2023-05-01T11:11:38.345Z,4.00
2023-05-01T11:12:47.093Z,3.87
2023-05-01T11:14:06.428Z,3.80
2023-05-01T11:15:05.885Z,3.80
2023-05-01T11:16:38.416Z,3.70
2023-05-01T11:17:41.913Z,4.07
2023-05-01T11:18:48.202Z,3.90
2023-05-01T11:19:47.809Z,3.85
2023-05-01T11:20:48.839Z,4.53
2023-05-01T11:21:45.672Z,3.80
2023-05-01T11:22:48.561Z,3.80
2023-05-01T11:23:47.345Z,4.03
2023-05-01T11:24:44.523Z,3.55
2023-05-01T11:25:41.542Z,3.67
2023-05-01T11:26:40.270Z,3.78
2023-05-01T11:27:37.272Z,3.83
2023-05-01T11:28:34.233Z,4.00
2023-05-01T11:29:35.004Z,3.70
2023-05-01T11:30:38.796Z,3.72
2023-05-01T11:31:36.010Z,4.40
2023-05-01T11:32:33.064Z,3.83
2023-05-01T11:33:31.122Z,3.92
2023-05-01T11:34:28.513Z,3.83
2023-05-01T11:35:27.417Z,5.10
2023-05-01T11:36:24.613Z,3.92
2023-05-01T11:37:42.142Z,4.05
2023-05-01T11:38:40.066Z,3.90
2023-05-01T11:39:37.067Z,3.90
2023-05-01T11:40:35.201Z,4.00
2023-05-01T11:41:32.354Z,3.70
2023-05-01T11:42:29.261Z,4.05
2023-05-01T11:43:27.009Z,3.92
2023-05-01T11:44:23.832Z,3.70
2023-05-01T11:45:21.050Z,3.60
2023-05-01T11:46:28.272Z,3.65
2023-05-01T11:47:26.670Z,3.83
2023-05-01T11:48:23.593Z,3.45
2023-05-01T11:49:27.052Z,3.95
2023-05-01T11:50:35.940Z,3.50
2023-05-01T11:51:32.940Z,3.62
2023-05-01T11:52:30.425Z,3.72
2023-05-01T11:53:27.362Z,4.10
2023-05-01T11:54:24.490Z,4.00
2023-05-01T11:55:21.921Z,4.70
2023-05-01T11:57:22.051Z,4.10
2023-05-01T11:58:32.079Z,3.90
2023-05-01T11:59:29.329Z,4.22
2023-05-01T12:00:34.102Z,3.87
2023-05-01T12:01:38.660Z,4.03
2023-05-01T12:02:35.665Z,3.95
2023-05-01T12:03:42.471Z,3.97
2023-05-01T12:04:39.548Z,3.90
2023-05-01T12:05:38.348Z,3.50
2023-05-01T12:06:45.794Z,3.95
2023-05-01T12:07:42.814Z,4.30
2023-05-01T12:08:48.794Z,3.70
2023-05-01T12:09:45.835Z,3.67
2023-05-01T12:10:43.889Z,3.72
2023-05-01T12:11:40.933Z,3.70
2023-05-01T12:12:37.831Z,3.60
2023-05-01T12:13:35.135Z,4.00
2023-05-01T12:14:32.072Z,3.85
2023-05-01T12:15:29.057Z,3.97
2023-05-01T12:16:26.071Z,3.83
2023-05-01T12:17:23.478Z,3.90
2023-05-01T12:18:23.780Z,3.90
2023-05-01T12:19:23.901Z,3.65
2023-05-01T12:20:48.015Z,3.53
2023-05-01T12:21:44.893Z,3.78
2023-05-01T12:23:00.157Z,3.35
2023-05-01T12:23:58.406Z,3.75
2023-05-01T12:24:55.520Z,3.50
2023-05-01T12:25:52.689Z,3.33
2023-05-01T12:27:00.839Z,2.90
2023-05-01T12:27:58.003Z,3.35
2023-05-01T12:29:02.770Z,3.30
2023-05-01T12:30:00.314Z,2.87
2023-05-01T12:31:04.895Z,3.33
2023-05-01T12:32:02.850Z,3.37
2023-05-01T12:33:01.223Z,3.90
2023-05-01T12:34:04.750Z,4.20
2023-05-01T12:35:01.870Z,3.78
2023-05-01T12:36:11.370Z,3.62
2023-05-01T12:37:08.232Z,3.45
2023-05-01T12:38:25.401Z,3.78
2023-05-01T12:39:23.664Z,4.75
2023-05-01T12:40:23.147Z,4.25
2023-05-01T12:41:20.041Z,4.37
2023-05-01T12:42:18.142Z,4.05
2023-05-01T12:43:15.401Z,3.92
2023-05-01T12:44:20.170Z,3.70
2023-05-01T12:45:17.193Z,4.03
2023-05-01T12:46:15.060Z,3.60
2023-05-01T12:47:12.848Z,3.20
2023-05-01T12:48:16.745Z,3.72
2023-05-01T12:49:20.229Z,3.45
2023-05-01T12:50:17.385Z,3.60
2023-05-01T12:51:19.213Z,3.75
2023-05-01T12:52:16.269Z,3.65
2023-05-01T12:53:13.709Z,3.90
2023-05-01T12:54:10.629Z,3.53
2023-05-01T12:55:09.250Z,3.72
2023-05-01T12:56:06.862Z,3.83
2023-05-01T12:57:15.085Z,3.80
2023-05-01T12:58:12.218Z,4.22
2023-05-01T12:59:23.629Z,3.72
2023-05-01T13:00:21.036Z,4.03
2023-05-01T13:01:28.604Z,3.72
2023-05-01T13:02:30.911Z,3.50
2023-05-01T13:03:29.576Z,3.78
2023-05-01T13:04:27.537Z,3.58
2023-05-01T13:05:24.940Z,3.47
2023-05-01T13:06:22.075Z,3.58
2023-05-01T13:07:19.845Z,3.35
2023-05-01T13:08:32.614Z,4.00
2023-05-01T13:09:33.540Z,3.62